sensor_id;sensor_type;location;lat;lon;timestamp;temperature;humidity
2010;DHT22;1008;47.404;8.502;2023-11-21T00:01:16;10.00;99.90
2010;DHT22;1008;47.404;8.502;2023-11-21T00:03:44;9.80;99.90
2010;DHT22;1008;47.404;8.502;2023-11-21T00:06:11;9.90;99.90
2010;DHT22;1008;47.404;8.502;2023-11-21T00:08:38;9.90;99.90
2010;DHT22;1008;47.404;8.502;2023-11-21T00:11:05;10.00;99.90
2010;DHT22;1008;47.404;8.502;2023-11-21T00:13:31;10.00;99.90
2010;DHT22;1008;47.404;8.502;2023-11-21T00:15:58;10.00;99.90
2010;DHT22;1008;47.404;8.502;2023-11-21T00:18:25;10.00;99.90
2010;DHT22;1008;47.404;8.502;2023-11-21T00:20:53;9.90;99.90
2010;DHT22;1008;47.404;8.502;2023-11-21T00:23:20;10.00;99.90
2010;DHT22;1008;47.404;8.502;2023-11-21T00:25:46;9.90;99.90
2010;DHT22;1008;47.404;8.502;2023-11-21T00:28:13;10.00;99.90
2010;DHT22;1008;47.404;8.502;2023-11-21T00:30:40;10.00;99.90
2010;DHT22;1008;47.404;8.502;2023-11-21T00:33:07;10.10;99.90
2010;DHT22;1008;47.404;8.502;2023-11-21T00:35:34;10.10;99.90
2010;DHT22;1008;47.404;8.502;2023-11-21T00:38:02;10.20;99.90
2010;DHT22;1008;47.404;8.502;2023-11-21T00:40:28;10.20;99.90
2010;DHT22;1008;47.404;8.502;2023-11-21T00:42:56;10.20;99.90
2010;DHT22;1008;47.404;8.502;2023-11-21T00:45:23;10.00;99.90
2010;DHT22;1008;47.404;8.502;2023-11-21T00:47:49;10.10;99.90
2010;DHT22;1008;47.404;8.502;2023-11-21T00:50:16;10.00;99.90
2010;DHT22;1008;47.404;8.502;2023-11-21T00:52:43;10.10;99.90
2010;DHT22;1008;47.404;8.502;2023-11-21T00:55:11;10.30;99.90
2010;DHT22;1008;47.404;8.502;2023-11-21T00:57:38;10.20;99.90
2010;DHT22;1008;47.404;8.502;2023-11-21T01:00:06;10.20;99.90
2010;DHT22;1008;47.404;8.502;2023-11-21T01:02:36;10.20;99.90
2010;DHT22;1008;47.404;8.502;2023-11-21T01:05:04;10.30;99.90
2010;DHT22;1008;47.404;8.502;2023-11-21T01:07:30;10.40;99.90
2010;DHT22;1008;47.404;8.502;2023-11-21T01:09:57;10.30;99.90
2010;DHT22;1008;47.404;8.502;2023-11-21T01:12:26;10.40;99.90
2010;DHT22;1008;47.404;8.502;2023-11-21T01:14:52;10.30;99.90
2010;DHT22;1008;47.404;8.502;2023-11-21T01:17:19;10.40;99.90
2010;DHT22;1008;47.404;8.502;2023-11-21T01:19:48;10.60;99.90
2010;DHT22;1008;47.404;8.502;2023-11-21T01:22:14;10.30;99.90
2010;DHT22;1008;47.404;8.502;2023-11-21T01:24:41;10.20;99.90
2010;DHT22;1008;47.404;8.502;2023-11-21T01:27:08;10.40;99.90
2010;DHT22;1008;47.404;8.502;2023-11-21T01:29:36;10.30;99.90
2010;DHT22;1008;47.404;8.502;2023-11-21T01:32:03;10.40;99.90
2010;DHT22;1008;47.404;8.502;2023-11-21T01:34:30;10.30;99.90
2010;DHT22;1008;47.404;8.502;2023-11-21T01:36:57;10.30;99.90
2010;DHT22;1008;47.404;8.502;2023-11-21T01:39:24;10.50;99.90
2010;DHT22;1008;47.404;8.502;2023-11-21T01:41:52;10.40;99.90
2010;DHT22;1008;47.404;8.502;2023-11-21T01:44:19;10.40;99.90
2010;DHT22;1008;47.404;8.502;2023-11-21T01:46:47;10.40;99.90
2010;DHT22;1008;47.404;8.502;2023-11-21T01:49:14;10.20;99.90
2010;DHT22;1008;47.404;8.502;2023-11-21T01:51:43;10.20;99.90
2010;DHT22;1008;47.404;8.502;2023-11-21T01:54:10;10.30;99.90
2010;DHT22;1008;47.404;8.502;2023-11-21T01:56:37;10.20;99.90
2010;DHT22;1008;47.404;8.502;2023-11-21T01:59:04;10.10;99.90
2010;DHT22;1008;47.404;8.502;2023-11-21T02:01:32;10.10;99.90
2010;DHT22;1008;47.404;8.502;2023-11-21T02:04:00;10.10;99.90
2010;DHT22;1008;47.404;8.502;2023-11-21T02:06:27;10.20;99.90
2010;DHT22;1008;47.404;8.502;2023-11-21T02:08:56;10.20;99.90
2010;DHT22;1008;47.404;8.502;2023-11-21T02:11:25;10.20;99.90
2010;DHT22;1008;47.404;8.502;2023-11-21T02:13:53;10.20;99.90
2010;DHT22;1008;47.404;8.502;2023-11-21T02:16:20;10.20;99.90
2010;DHT22;1008;47.404;8.502;2023-11-21T02:18:47;10.00;99.90
2010;DHT22;1008;47.404;8.502;2023-11-21T02:21:19;10.00;99.90
2010;DHT22;1008;47.404;8.502;2023-11-21T02:23:47;9.90;99.90
2010;DHT22;1008;47.404;8.502;2023-11-21T02:26:13;9.80;99.90
2010;DHT22;1008;47.404;8.502;2023-11-21T02:28:42;9.90;99.90
2010;DHT22;1008;47.404;8.502;2023-11-21T02:31:09;10.00;99.90
2010;DHT22;1008;47.404;8.502;2023-11-21T02:33:35;10.00;99.90
2010;DHT22;1008;47.404;8.502;2023-11-21T02:36:03;9.80;99.90
2010;DHT22;1008;47.404;8.502;2023-11-21T02:38:31;9.50;99.90
2010;DHT22;1008;47.404;8.502;2023-11-21T02:40:59;9.50;99.90
2010;DHT22;1008;47.404;8.502;2023-11-21T02:43:25;9.20;99.90
2010;DHT22;1008;47.404;8.502;2023-11-21T02:45:52;8.90;99.90
2010;DHT22;1008;47.404;8.502;2023-11-21T02:48:19;8.70;99.90
2010;DHT22;1008;47.404;8.502;2023-11-21T02:50:45;8.80;99.90
2010;DHT22;1008;47.404;8.502;2023-11-21T02:53:12;8.60;99.90
2010;DHT22;1008;47.404;8.502;2023-11-21T02:55:40;8.60;99.90
2010;DHT22;1008;47.404;8.502;2023-11-21T02:58:08;8.70;99.90
2010;DHT22;1008;47.404;8.502;2023-11-21T03:00:35;8.50;99.90
2010;DHT22;1008;47.404;8.502;2023-11-21T03:03:01;8.60;99.90
2010;DHT22;1008;47.404;8.502;2023-11-21T03:05:29;8.60;99.90
2010;DHT22;1008;47.404;8.502;2023-11-21T03:07:56;8.80;99.90
2010;DHT22;1008;47.404;8.502;2023-11-21T03:10:23;8.80;99.90
2010;DHT22;1008;47.404;8.502;2023-11-21T03:12:50;8.90;99.90
2010;DHT22;1008;47.404;8.502;2023-11-21T03:15:18;8.70;99.90
2010;DHT22;1008;47.404;8.502;2023-11-21T03:17:44;8.80;99.90
2010;DHT22;1008;47.404;8.502;2023-11-21T03:20:11;8.90;99.90
2010;DHT22;1008;47.404;8.502;2023-11-21T03:22:39;8.70;99.90
2010;DHT22;1008;47.404;8.502;2023-11-21T03:25:07;8.70;99.90
2010;DHT22;1008;47.404;8.502;2023-11-21T03:27:36;8.60;99.90
2010;DHT22;1008;47.404;8.502;2023-11-21T03:30:05;8.60;99.90
2010;DHT22;1008;47.404;8.502;2023-11-21T03:32:33;8.50;99.90
2010;DHT22;1008;47.404;8.502;2023-11-21T03:35:01;8.60;99.90
2010;DHT22;1008;47.404;8.502;2023-11-21T03:37:28;8.60;99.90
2010;DHT22;1008;47.404;8.502;2023-11-21T03:39:55;8.70;99.90
2010;DHT22;1008;47.404;8.502;2023-11-21T03:42:21;8.80;99.90
2010;DHT22;1008;47.404;8.502;2023-11-21T03:44:49;8.80;99.90
2010;DHT22;1008;47.404;8.502;2023-11-21T03:47:15;8.80;99.90
2010;DHT22;1008;47.404;8.502;2023-11-21T03:49:43;8.80;99.90
2010;DHT22;1008;47.404;8.502;2023-11-21T03:52:11;8.90;99.90
2010;DHT22;1008;47.404;8.502;2023-11-21T03:54:37;9.00;99.90
2010;DHT22;1008;47.404;8.502;2023-11-21T03:57:04;9.00;99.90
2010;DHT22;1008;47.404;8.502;2023-11-21T03:59:31;8.90;99.90
2010;DHT22;1008;47.404;8.502;2023-11-21T04:01:58;8.90;99.90
2010;DHT22;1008;47.404;8.502;2023-11-21T04:04:24;9.00;99.90
2010;DHT22;1008;47.404;8.502;2023-11-21T04:06:52;8.80;99.90
2010;DHT22;1008;47.404;8.502;2023-11-21T04:09:22;8.80;99.90
2010;DHT22;1008;47.404;8.502;2023-11-21T04:11:50;8.80;99.90
2010;DHT22;1008;47.404;8.502;2023-11-21T04:14:17;8.70;99.90
2010;DHT22;1008;47.404;8.502;2023-11-21T04:16:45;8.50;99.90
2010;DHT22;1008;47.404;8.502;2023-11-21T04:19:12;8.60;99.90
2010;DHT22;1008;47.404;8.502;2023-11-21T04:21:40;8.60;99.90
2010;DHT22;1008;47.404;8.502;2023-11-21T04:24:08;8.40;99.90
2010;DHT22;1008;47.404;8.502;2023-11-21T04:26:35;8.60;99.90
2010;DHT22;1008;47.404;8.502;2023-11-21T04:29:02;8.20;99.90
2010;DHT22;1008;47.404;8.502;2023-11-21T04:31:28;8.20;99.90
2010;DHT22;1008;47.404;8.502;2023-11-21T04:33:55;8.20;99.90
2010;DHT22;1008;47.404;8.502;2023-11-21T04:36:22;8.30;99.90
2010;DHT22;1008;47.404;8.502;2023-11-21T04:38:48;8.30;99.90
2010;DHT22;1008;47.404;8.502;2023-11-21T04:41:16;8.30;99.90
2010;DHT22;1008;47.404;8.502;2023-11-21T04:43:43;8.10;99.90
2010;DHT22;1008;47.404;8.502;2023-11-21T04:46:10;8.10;99.90
2010;DHT22;1008;47.404;8.502;2023-11-21T04:48:37;8.10;99.90
2010;DHT22;1008;47.404;8.502;2023-11-21T04:51:03;8.20;99.90
2010;DHT22;1008;47.404;8.502;2023-11-21T04:53:30;8.00;99.90
2010;DHT22;1008;47.404;8.502;2023-11-21T04:55:57;8.10;99.90
2010;DHT22;1008;47.404;8.502;2023-11-21T04:58:25;8.10;99.90
2010;DHT22;1008;47.404;8.502;2023-11-21T05:00:52;8.20;99.90
2010;DHT22;1008;47.404;8.502;2023-11-21T05:03:19;8.30;99.90
2010;DHT22;1008;47.404;8.502;2023-11-21T05:05:46;8.00;99.90
2010;DHT22;1008;47.404;8.502;2023-11-21T05:08:13;8.20;99.90
2010;DHT22;1008;47.404;8.502;2023-11-21T05:10:39;8.30;99.90
2010;DHT22;1008;47.404;8.502;2023-11-21T05:13:06;8.50;99.90
2010;DHT22;1008;47.404;8.502;2023-11-21T05:15:37;8.30;99.90
2010;DHT22;1008;47.404;8.502;2023-11-21T05:18:04;8.30;99.90
2010;DHT22;1008;47.404;8.502;2023-11-21T05:20:31;8.40;99.90
2010;DHT22;1008;47.404;8.502;2023-11-21T05:22:58;8.50;99.90
2010;DHT22;1008;47.404;8.502;2023-11-21T05:25:25;8.50;99.90
2010;DHT22;1008;47.404;8.502;2023-11-21T05:27:52;8.40;99.90
2010;DHT22;1008;47.404;8.502;2023-11-21T05:30:20;8.40;99.90
2010;DHT22;1008;47.404;8.502;2023-11-21T05:32:49;8.30;99.90
2010;DHT22;1008;47.404;8.502;2023-11-21T05:35:16;8.50;99.90
2010;DHT22;1008;47.404;8.502;2023-11-21T05:37:43;8.60;99.90
2010;DHT22;1008;47.404;8.502;2023-11-21T05:40:11;8.60;99.90
2010;DHT22;1008;47.404;8.502;2023-11-21T05:42:39;8.70;99.90
2010;DHT22;1008;47.404;8.502;2023-11-21T05:45:06;8.70;99.90
2010;DHT22;1008;47.404;8.502;2023-11-21T05:47:37;8.40;99.90
2010;DHT22;1008;47.404;8.502;2023-11-21T05:50:07;8.50;99.90
2010;DHT22;1008;47.404;8.502;2023-11-21T05:52:38;8.50;99.90
2010;DHT22;1008;47.404;8.502;2023-11-21T05:55:05;8.60;99.90
2010;DHT22;1008;47.404;8.502;2023-11-21T05:57:33;8.80;99.90
2010;DHT22;1008;47.404;8.502;2023-11-21T06:00:02;8.70;99.90
2010;DHT22;1008;47.404;8.502;2023-11-21T06:02:37;8.70;99.90
2010;DHT22;1008;47.404;8.502;2023-11-21T06:05:06;8.70;99.90
2010;DHT22;1008;47.404;8.502;2023-11-21T06:07:34;8.80;99.90
2010;DHT22;1008;47.404;8.502;2023-11-21T06:10:01;8.80;99.90
2010;DHT22;1008;47.404;8.502;2023-11-21T06:12:28;8.70;99.90
2010;DHT22;1008;47.404;8.502;2023-11-21T06:14:55;8.80;99.90
2010;DHT22;1008;47.404;8.502;2023-11-21T06:17:21;8.80;99.90
2010;DHT22;1008;47.404;8.502;2023-11-21T06:19:50;8.80;99.90
2010;DHT22;1008;47.404;8.502;2023-11-21T06:22:19;8.70;99.90
2010;DHT22;1008;47.404;8.502;2023-11-21T06:24:46;8.70;99.90
2010;DHT22;1008;47.404;8.502;2023-11-21T06:27:13;8.80;99.90
2010;DHT22;1008;47.404;8.502;2023-11-21T06:29:39;8.60;99.90
2010;DHT22;1008;47.404;8.502;2023-11-21T06:32:07;8.60;99.90
2010;DHT22;1008;47.404;8.502;2023-11-21T06:34:34;8.60;99.90
2010;DHT22;1008;47.404;8.502;2023-11-21T06:37:01;8.70;99.90
2010;DHT22;1008;47.404;8.502;2023-11-21T06:39:29;8.70;99.90
2010;DHT22;1008;47.404;8.502;2023-11-21T06:41:56;8.60;99.90
2010;DHT22;1008;47.404;8.502;2023-11-21T06:44:22;8.40;99.90
2010;DHT22;1008;47.404;8.502;2023-11-21T06:46:49;8.50;99.90
2010;DHT22;1008;47.404;8.502;2023-11-21T06:49:17;8.60;99.90
2010;DHT22;1008;47.404;8.502;2023-11-21T06:51:43;8.60;99.90
2010;DHT22;1008;47.404;8.502;2023-11-21T06:54:10;8.60;99.90
2010;DHT22;1008;47.404;8.502;2023-11-21T06:56:38;8.60;99.90
2010;DHT22;1008;47.404;8.502;2023-11-21T06:59:05;8.60;99.90
2010;DHT22;1008;47.404;8.502;2023-11-21T07:01:32;8.60;99.90
2010;DHT22;1008;47.404;8.502;2023-11-21T07:04:04;8.60;99.90
2010;DHT22;1008;47.404;8.502;2023-11-21T07:06:31;8.60;99.90
2010;DHT22;1008;47.404;8.502;2023-11-21T07:08:58;8.80;99.90
2010;DHT22;1008;47.404;8.502;2023-11-21T07:11:26;8.80;99.90
2010;DHT22;1008;47.404;8.502;2023-11-21T07:13:54;8.80;99.90
2010;DHT22;1008;47.404;8.502;2023-11-21T07:16:21;8.70;99.90
2010;DHT22;1008;47.404;8.502;2023-11-21T07:18:49;8.80;99.90
2010;DHT22;1008;47.404;8.502;2023-11-21T07:21:16;8.50;99.90
2010;DHT22;1008;47.404;8.502;2023-11-21T07:23:42;8.80;99.90
2010;DHT22;1008;47.404;8.502;2023-11-21T07:26:09;8.90;99.90
2010;DHT22;1008;47.404;8.502;2023-11-21T07:28:36;8.60;99.90
2010;DHT22;1008;47.404;8.502;2023-11-21T07:31:04;8.60;99.90
2010;DHT22;1008;47.404;8.502;2023-11-21T07:33:31;8.60;99.90
2010;DHT22;1008;47.404;8.502;2023-11-21T07:35:58;8.70;99.90
2010;DHT22;1008;47.404;8.502;2023-11-21T07:38:25;8.70;99.90
2010;DHT22;1008;47.404;8.502;2023-11-21T07:40:51;9.00;99.90
2010;DHT22;1008;47.404;8.502;2023-11-21T07:43:18;8.90;99.90
2010;DHT22;1008;47.404;8.502;2023-11-21T07:45:45;8.60;99.90
2010;DHT22;1008;47.404;8.502;2023-11-21T07:48:14;8.80;99.90
2010;DHT22;1008;47.404;8.502;2023-11-21T07:50:40;8.70;99.90
2010;DHT22;1008;47.404;8.502;2023-11-21T07:53:07;8.70;99.90
2010;DHT22;1008;47.404;8.502;2023-11-21T07:55:35;8.70;99.90
2010;DHT22;1008;47.404;8.502;2023-11-21T07:58:01;8.70;99.90
2010;DHT22;1008;47.404;8.502;2023-11-21T08:00:29;8.70;99.90
2010;DHT22;1008;47.404;8.502;2023-11-21T08:02:56;8.60;99.90
2010;DHT22;1008;47.404;8.502;2023-11-21T08:05:24;8.60;99.90
2010;DHT22;1008;47.404;8.502;2023-11-21T08:07:51;8.60;99.90
2010;DHT22;1008;47.404;8.502;2023-11-21T08:10:18;8.70;99.90
2010;DHT22;1008;47.404;8.502;2023-11-21T08:12:46;8.80;99.90
2010;DHT22;1008;47.404;8.502;2023-11-21T08:15:13;8.70;99.90
2010;DHT22;1008;47.404;8.502;2023-11-21T08:17:40;8.60;99.90
2010;DHT22;1008;47.404;8.502;2023-11-21T08:20:08;8.60;99.90
2010;DHT22;1008;47.404;8.502;2023-11-21T08:22:37;8.60;99.90
2010;DHT22;1008;47.404;8.502;2023-11-21T08:25:07;8.70;99.90
2010;DHT22;1008;47.404;8.502;2023-11-21T08:27:34;8.70;99.90
2010;DHT22;1008;47.404;8.502;2023-11-21T08:30:01;8.80;99.90
2010;DHT22;1008;47.404;8.502;2023-11-21T08:32:28;8.80;99.90
2010;DHT22;1008;47.404;8.502;2023-11-21T08:34:56;8.80;99.90
2010;DHT22;1008;47.404;8.502;2023-11-21T08:37:22;8.90;99.90
2010;DHT22;1008;47.404;8.502;2023-11-21T08:39:50;9.00;99.90
2010;DHT22;1008;47.404;8.502;2023-11-21T08:42:18;9.20;99.90
2010;DHT22;1008;47.404;8.502;2023-11-21T08:44:45;9.00;99.90
2010;DHT22;1008;47.404;8.502;2023-11-21T08:47:12;9.10;99.90
2010;DHT22;1008;47.404;8.502;2023-11-21T08:49:39;9.10;99.90
2010;DHT22;1008;47.404;8.502;2023-11-21T08:52:06;9.10;99.90
2010;DHT22;1008;47.404;8.502;2023-11-21T08:54:33;9.20;99.90
2010;DHT22;1008;47.404;8.502;2023-11-21T08:57:02;8.80;99.90
2010;DHT22;1008;47.404;8.502;2023-11-21T08:59:29;9.10;99.90
2010;DHT22;1008;47.404;8.502;2023-11-21T09:01:55;9.20;99.90
2010;DHT22;1008;47.404;8.502;2023-11-21T09:04:22;8.90;99.90
2010;DHT22;1008;47.404;8.502;2023-11-21T09:06:49;8.90;99.90
2010;DHT22;1008;47.404;8.502;2023-11-21T09:09:15;9.00;99.90
2010;DHT22;1008;47.404;8.502;2023-11-21T09:11:42;9.00;99.90
2010;DHT22;1008;47.404;8.502;2023-11-21T09:14:12;9.00;99.90
2010;DHT22;1008;47.404;8.502;2023-11-21T09:16:41;8.90;99.90
2010;DHT22;1008;47.404;8.502;2023-11-21T09:19:08;9.00;99.90
2010;DHT22;1008;47.404;8.502;2023-11-21T09:21:35;9.00;99.90
2010;DHT22;1008;47.404;8.502;2023-11-21T09:24:02;9.10;99.90
2010;DHT22;1008;47.404;8.502;2023-11-21T09:26:29;9.00;99.90
2010;DHT22;1008;47.404;8.502;2023-11-21T09:28:55;9.00;99.90
2010;DHT22;1008;47.404;8.502;2023-11-21T09:31:23;9.10;99.90
2010;DHT22;1008;47.404;8.502;2023-11-21T09:33:50;8.90;99.90
2010;DHT22;1008;47.404;8.502;2023-11-21T09:36:17;9.00;99.90
2010;DHT22;1008;47.404;8.502;2023-11-21T09:38:44;9.00;99.90
2010;DHT22;1008;47.404;8.502;2023-11-21T09:41:18;9.00;99.90
2010;DHT22;1008;47.404;8.502;2023-11-21T09:43:46;9.10;99.90
2010;DHT22;1008;47.404;8.502;2023-11-21T09:46:14;9.20;99.90
2010;DHT22;1008;47.404;8.502;2023-11-21T09:48:48;9.10;99.90
2010;DHT22;1008;47.404;8.502;2023-11-21T09:51:19;8.90;99.90
2010;DHT22;1008;47.404;8.502;2023-11-21T09:53:48;9.10;99.90
2010;DHT22;1008;47.404;8.502;2023-11-21T09:56:17;8.90;99.90
2010;DHT22;1008;47.404;8.502;2023-11-21T09:58:51;8.80;99.90
2010;DHT22;1008;47.404;8.502;2023-11-21T10:01:19;8.80;99.90
2010;DHT22;1008;47.404;8.502;2023-11-21T10:03:47;8.90;99.90
2010;DHT22;1008;47.404;8.502;2023-11-21T10:06:14;8.90;99.90
2010;DHT22;1008;47.404;8.502;2023-11-21T10:08:41;9.00;99.90
2010;DHT22;1008;47.404;8.502;2023-11-21T10:11:09;9.00;99.90
2010;DHT22;1008;47.404;8.502;2023-11-21T10:13:37;9.00;99.90
2010;DHT22;1008;47.404;8.502;2023-11-21T10:16:07;9.20;99.90
2010;DHT22;1008;47.404;8.502;2023-11-21T10:18:37;9.00;99.90
2010;DHT22;1008;47.404;8.502;2023-11-21T10:21:07;8.70;99.90
2010;DHT22;1008;47.404;8.502;2023-11-21T10:23:34;8.90;99.90
2010;DHT22;1008;47.404;8.502;2023-11-21T10:26:01;8.80;99.90
2010;DHT22;1008;47.404;8.502;2023-11-21T10:28:28;8.70;99.90
2010;DHT22;1008;47.404;8.502;2023-11-21T10:30:56;8.90;99.90
2010;DHT22;1008;47.404;8.502;2023-11-21T10:33:27;8.90;99.90
2010;DHT22;1008;47.404;8.502;2023-11-21T10:35:55;9.10;99.90
2010;DHT22;1008;47.404;8.502;2023-11-21T10:38:23;9.20;99.90
2010;DHT22;1008;47.404;8.502;2023-11-21T10:40:52;9.30;99.90
2010;DHT22;1008;47.404;8.502;2023-11-21T10:43:24;9.20;99.90
2010;DHT22;1008;47.404;8.502;2023-11-21T10:45:51;9.10;99.90
2010;DHT22;1008;47.404;8.502;2023-11-21T10:48:18;9.10;99.90
2010;DHT22;1008;47.404;8.502;2023-11-21T10:50:46;9.20;99.90
2010;DHT22;1008;47.404;8.502;2023-11-21T10:53:13;9.20;99.90
2010;DHT22;1008;47.404;8.502;2023-11-21T10:55:42;9.20;99.90
2010;DHT22;1008;47.404;8.502;2023-11-21T10:58:10;9.30;99.90
2010;DHT22;1008;47.404;8.502;2023-11-21T11:00:40;9.20;99.90
2010;DHT22;1008;47.404;8.502;2023-11-21T11:03:07;9.20;99.90
2010;DHT22;1008;47.404;8.502;2023-11-21T11:05:40;9.50;99.90
2010;DHT22;1008;47.404;8.502;2023-11-21T11:08:12;9.30;99.90
2010;DHT22;1008;47.404;8.502;2023-11-21T11:10:45;9.40;99.90
2010;DHT22;1008;47.404;8.502;2023-11-21T11:13:13;9.50;99.90
2010;DHT22;1008;47.404;8.502;2023-11-21T11:15:41;9.60;99.90
2010;DHT22;1008;47.404;8.502;2023-11-21T11:18:08;9.60;99.90
2010;DHT22;1008;47.404;8.502;2023-11-21T11:20:37;9.70;99.90
2010;DHT22;1008;47.404;8.502;2023-11-21T11:23:25;9.70;99.90
2010;DHT22;1008;47.404;8.502;2023-11-21T11:26:07;9.60;99.90
2010;DHT22;1008;47.404;8.502;2023-11-21T11:28:40;9.60;99.90
2010;DHT22;1008;47.404;8.502;2023-11-21T11:31:18;9.70;99.90
2010;DHT22;1008;47.404;8.502;2023-11-21T11:33:53;9.80;99.90
2010;DHT22;1008;47.404;8.502;2023-11-21T11:36:26;9.90;99.90
2010;DHT22;1008;47.404;8.502;2023-11-21T11:38:54;10.00;99.90
2010;DHT22;1008;47.404;8.502;2023-11-21T11:41:26;9.80;99.90
2010;DHT22;1008;47.404;8.502;2023-11-21T11:43:55;10.10;99.90
2010;DHT22;1008;47.404;8.502;2023-11-21T11:46:40;10.40;99.90
2010;DHT22;1008;47.404;8.502;2023-11-21T11:49:08;10.60;99.90
2010;DHT22;1008;47.404;8.502;2023-11-21T11:51:34;10.50;99.90
2010;DHT22;1008;47.404;8.502;2023-11-21T11:54:01;10.40;99.90
2010;DHT22;1008;47.404;8.502;2023-11-21T11:56:31;10.40;99.90
2010;DHT22;1008;47.404;8.502;2023-11-21T11:59:00;10.10;99.90
2010;DHT22;1008;47.404;8.502;2023-11-21T12:01:29;10.10;99.90
2010;DHT22;1008;47.404;8.502;2023-11-21T12:04:24;10.00;99.90
2010;DHT22;1008;47.404;8.502;2023-11-21T12:06:57;10.00;99.90
2010;DHT22;1008;47.404;8.502;2023-11-21T12:09:26;10.00;99.90
2010;DHT22;1008;47.404;8.502;2023-11-21T12:11:55;9.90;99.90
2010;DHT22;1008;47.404;8.502;2023-11-21T12:14:22;9.90;99.90
2010;DHT22;1008;47.404;8.502;2023-11-21T12:16:49;9.90;99.90
2010;DHT22;1008;47.404;8.502;2023-11-21T12:19:17;10.00;99.90
2010;DHT22;1008;47.404;8.502;2023-11-21T12:21:44;10.00;99.90
2010;DHT22;1008;47.404;8.502;2023-11-21T12:24:11;9.70;99.90
2010;DHT22;1008;47.404;8.502;2023-11-21T12:26:39;9.70;99.90
2010;DHT22;1008;47.404;8.502;2023-11-21T12:29:07;9.70;99.90
2010;DHT22;1008;47.404;8.502;2023-11-21T12:31:34;9.70;99.90
2010;DHT22;1008;47.404;8.502;2023-11-21T12:34:01;9.80;99.90
2010;DHT22;1008;47.404;8.502;2023-11-21T12:36:29;9.70;99.90
2010;DHT22;1008;47.404;8.502;2023-11-21T12:38:56;9.80;99.90
2010;DHT22;1008;47.404;8.502;2023-11-21T12:41:23;9.80;99.90
2010;DHT22;1008;47.404;8.502;2023-11-21T12:43:49;9.90;99.90
2010;DHT22;1008;47.404;8.502;2023-11-21T12:46:18;10.00;99.90
2010;DHT22;1008;47.404;8.502;2023-11-21T12:48:45;10.00;99.90
2010;DHT22;1008;47.404;8.502;2023-11-21T12:51:13;10.10;99.90
2010;DHT22;1008;47.404;8.502;2023-11-21T12:53:41;10.00;99.90
2010;DHT22;1008;47.404;8.502;2023-11-21T12:56:10;9.90;99.90
2010;DHT22;1008;47.404;8.502;2023-11-21T12:58:37;9.70;99.90
2010;DHT22;1008;47.404;8.502;2023-11-21T13:01:06;9.70;99.90
2010;DHT22;1008;47.404;8.502;2023-11-21T13:03:39;9.80;99.90
2010;DHT22;1008;47.404;8.502;2023-11-21T13:06:06;9.90;99.90
2010;DHT22;1008;47.404;8.502;2023-11-21T13:08:34;9.90;99.90
2010;DHT22;1008;47.404;8.502;2023-11-21T13:11:01;9.90;99.90
2010;DHT22;1008;47.404;8.502;2023-11-21T13:13:29;9.90;99.90
2010;DHT22;1008;47.404;8.502;2023-11-21T13:15:59;9.90;99.90
2010;DHT22;1008;47.404;8.502;2023-11-21T13:18:28;9.90;99.90
2010;DHT22;1008;47.404;8.502;2023-11-21T13:20:58;10.10;99.90
2010;DHT22;1008;47.404;8.502;2023-11-21T13:23:26;10.20;99.90
2010;DHT22;1008;47.404;8.502;2023-11-21T13:25:53;10.10;99.90
2010;DHT22;1008;47.404;8.502;2023-11-21T13:28:20;9.90;99.90
2010;DHT22;1008;47.404;8.502;2023-11-21T13:30:49;9.90;99.90
2010;DHT22;1008;47.404;8.502;2023-11-21T13:33:18;9.80;99.90
2010;DHT22;1008;47.404;8.502;2023-11-21T13:35:48;9.50;99.90
2010;DHT22;1008;47.404;8.502;2023-11-21T13:38:18;9.70;99.90
2010;DHT22;1008;47.404;8.502;2023-11-21T13:40:49;9.60;99.90
2010;DHT22;1008;47.404;8.502;2023-11-21T13:43:20;9.60;99.90
2010;DHT22;1008;47.404;8.502;2023-11-21T13:45:48;10.00;99.90
2010;DHT22;1008;47.404;8.502;2023-11-21T13:48:17;9.70;99.90
2010;DHT22;1008;47.404;8.502;2023-11-21T13:50:53;9.60;99.90
2010;DHT22;1008;47.404;8.502;2023-11-21T13:53:25;9.50;99.90
2010;DHT22;1008;47.404;8.502;2023-11-21T13:55:53;9.60;99.90
2010;DHT22;1008;47.404;8.502;2023-11-21T13:58:21;9.60;99.90
2010;DHT22;1008;47.404;8.502;2023-11-21T14:00:51;9.70;99.90
2010;DHT22;1008;47.404;8.502;2023-11-21T14:03:22;9.80;99.90
2010;DHT22;1008;47.404;8.502;2023-11-21T14:05:57;9.80;99.90
2010;DHT22;1008;47.404;8.502;2023-11-21T14:08:25;9.60;99.90
2010;DHT22;1008;47.404;8.502;2023-11-21T14:10:54;9.50;99.90
2010;DHT22;1008;47.404;8.502;2023-11-21T14:13:23;9.30;99.90
2010;DHT22;1008;47.404;8.502;2023-11-21T14:15:50;9.00;99.90
2010;DHT22;1008;47.404;8.502;2023-11-21T14:18:19;9.10;99.90
2010;DHT22;1008;47.404;8.502;2023-11-21T14:20:53;9.10;99.90
2010;DHT22;1008;47.404;8.502;2023-11-21T14:23:20;9.40;99.90
2010;DHT22;1008;47.404;8.502;2023-11-21T14:25:48;9.20;99.90
2010;DHT22;1008;47.404;8.502;2023-11-21T14:28:15;9.30;99.90
2010;DHT22;1008;47.404;8.502;2023-11-21T14:30:42;9.50;99.90
2010;DHT22;1008;47.404;8.502;2023-11-21T14:33:09;9.50;99.90
2010;DHT22;1008;47.404;8.502;2023-11-21T14:35:37;9.60;99.90
2010;DHT22;1008;47.404;8.502;2023-11-21T14:38:03;10.10;99.90
2010;DHT22;1008;47.404;8.502;2023-11-21T14:40:31;9.80;99.90
2010;DHT22;1008;47.404;8.502;2023-11-21T14:43:02;9.80;99.90
2010;DHT22;1008;47.404;8.502;2023-11-21T14:45:30;9.80;99.90
2010;DHT22;1008;47.404;8.502;2023-11-21T14:47:57;9.90;99.90
2010;DHT22;1008;47.404;8.502;2023-11-21T14:50:32;9.70;99.90
2010;DHT22;1008;47.404;8.502;2023-11-21T14:53:15;9.70;99.90
2010;DHT22;1008;47.404;8.502;2023-11-21T14:55:55;9.70;99.90
2010;DHT22;1008;47.404;8.502;2023-11-21T14:58:26;9.70;99.90
2010;DHT22;1008;47.404;8.502;2023-11-21T15:00:54;9.70;99.90
2010;DHT22;1008;47.404;8.502;2023-11-21T15:03:23;9.80;99.90
2010;DHT22;1008;47.404;8.502;2023-11-21T15:06:09;9.70;99.90
2010;DHT22;1008;47.404;8.502;2023-11-21T15:08:53;9.60;99.90
2010;DHT22;1008;47.404;8.502;2023-11-21T15:11:26;9.60;99.90
2010;DHT22;1008;47.404;8.502;2023-11-21T15:13:57;9.70;99.90
2010;DHT22;1008;47.404;8.502;2023-11-21T15:16:23;9.70;99.90
2010;DHT22;1008;47.404;8.502;2023-11-21T15:18:51;9.60;99.90
2010;DHT22;1008;47.404;8.502;2023-11-21T15:21:18;9.50;99.90
2010;DHT22;1008;47.404;8.502;2023-11-21T15:23:47;9.50;99.90
2010;DHT22;1008;47.404;8.502;2023-11-21T15:26:13;9.60;99.90
2010;DHT22;1008;47.404;8.502;2023-11-21T15:28:40;9.50;99.90
2010;DHT22;1008;47.404;8.502;2023-11-21T15:31:08;9.50;99.90
2010;DHT22;1008;47.404;8.502;2023-11-21T15:33:35;9.50;99.90
2010;DHT22;1008;47.404;8.502;2023-11-21T15:36:02;9.60;99.90
2010;DHT22;1008;47.404;8.502;2023-11-21T15:38:29;9.60;99.90
2010;DHT22;1008;47.404;8.502;2023-11-21T15:40:56;9.50;99.90
2010;DHT22;1008;47.404;8.502;2023-11-21T15:43:24;9.50;99.90
2010;DHT22;1008;47.404;8.502;2023-11-21T15:45:52;9.40;99.90
2010;DHT22;1008;47.404;8.502;2023-11-21T15:48:20;9.50;99.90
2010;DHT22;1008;47.404;8.502;2023-11-21T15:50:47;9.40;99.90
2010;DHT22;1008;47.404;8.502;2023-11-21T15:53:16;9.40;99.90
2010;DHT22;1008;47.404;8.502;2023-11-21T15:55:43;9.50;99.90
2010;DHT22;1008;47.404;8.502;2023-11-21T15:58:10;9.50;99.90
2010;DHT22;1008;47.404;8.502;2023-11-21T16:00:37;9.50;99.90
2010;DHT22;1008;47.404;8.502;2023-11-21T16:03:03;9.40;99.90
2010;DHT22;1008;47.404;8.502;2023-11-21T16:05:32;9.50;99.90
2010;DHT22;1008;47.404;8.502;2023-11-21T16:08:01;9.50;99.90
2010;DHT22;1008;47.404;8.502;2023-11-21T16:10:28;9.60;99.90
2010;DHT22;1008;47.404;8.502;2023-11-21T16:12:54;9.70;99.90
2010;DHT22;1008;47.404;8.502;2023-11-21T16:15:22;9.60;99.90
2010;DHT22;1008;47.404;8.502;2023-11-21T16:17:48;9.70;99.90
2010;DHT22;1008;47.404;8.502;2023-11-21T16:20:15;9.70;99.90